Time;durP1;ratioP1;P1;durP2;ratioP2;P2;SDS_P1;SDS_P2;PMS_P1;PMS_P2;Temp;Humidity;BMP_temperature;BMP_pressure;BME280_temperature;BME280_humidity;BME280_pressure;Samples;Min_cycle;Max_cycle;Signal;HPM_P1;HPM_P2
2022/12/10 00:00:41;;;;;;;;;;;2.40;99.90;;;;;;7339929;19;109228;-71
2022/12/10 00:03:08;;;;;;;;;;;2.40;99.90;;;;;;7336727;19;110069;-71
2022/12/10 00:05:35;;;;;;;;;;;2.40;99.90;;;;;;7338888;19;109164;-71
2022/12/10 00:08:02;;;;;;;;;;;2.40;99.90;;;;;;7337485;19;109730;-71
2022/12/10 00:10:29;;;;;;;;;;;2.40;99.90;;;;;;7336576;19;110462;-71
2022/12/10 00:12:56;;;;;;;;;;;2.40;99.90;;;;;;7335054;19;108518;-71
2022/12/10 00:15:23;;;;;;;;;;;2.40;99.90;;;;;;7343237;19;110278;-71
2022/12/10 00:17:50;;;;;;;;;;;2.40;99.90;;;;;;7337399;19;109646;-72
2022/12/10 00:20:16;;;;;;;;;;;2.30;99.90;;;;;;7336498;19;108678;-71
2022/12/10 00:22:43;;;;;;;;;;;2.30;99.90;;;;;;7336059;19;110330;-71
2022/12/10 00:25:10;;;;;;;;;;;2.20;99.90;;;;;;7336353;19;108705;-72
2022/12/10 00:27:37;;;;;;;;;;;2.20;99.90;;;;;;7338732;19;108202;-81
2022/12/10 00:30:04;;;;;;;;;;;2.30;99.90;;;;;;7337795;19;114558;-76
2022/12/10 00:32:32;;;;;;;;;;;2.30;99.90;;;;;;7337499;19;108615;-76
2022/12/10 00:34:59;;;;;;;;;;;2.20;99.90;;;;;;7340470;19;109368;-83
2022/12/10 00:37:26;;;;;;;;;;;2.30;99.90;;;;;;7342123;19;110843;-76
2022/12/10 00:39:52;;;;;;;;;;;2.30;99.90;;;;;;7337748;19;110276;-78
2022/12/10 00:42:19;;;;;;;;;;;2.30;99.90;;;;;;7338119;19;110390;-77
2022/12/10 00:44:46;;;;;;;;;;;2.30;99.90;;;;;;7338069;19;108329;-71
2022/12/10 00:47:13;;;;;;;;;;;2.30;99.90;;;;;;7335529;19;109605;-71
2022/12/10 00:49:40;;;;;;;;;;;2.30;99.90;;;;;;7337156;19;109138;-71
2022/12/10 00:52:07;;;;;;;;;;;2.20;99.90;;;;;;7337010;19;108785;-71
2022/12/10 00:54:34;;;;;;;;;;;2.20;99.90;;;;;;7335531;19;110151;-71
2022/12/10 00:57:01;;;;;;;;;;;2.20;99.90;;;;;;7337429;19;110812;-71
2022/12/10 00:59:28;;;;;;;;;;;2.10;99.90;;;;;;7340762;19;109272;-72
2022/12/10 01:01:54;;;;;;;;;;;2.10;99.90;;;;;;7334387;19;111434;-71
2022/12/10 01:04:21;;;;;;;;;;;2.10;99.90;;;;;;7333923;19;108679;-72
2022/12/10 01:06:50;;;;;;;;;;;2.10;99.90;;;;;;7336984;19;109094;-71
2022/12/10 01:09:19;;;;;;;;;;;2.00;99.90;;;;;;7334003;19;109762;-71
2022/12/10 01:11:47;;;;;;;;;;;2.10;99.90;;;;;;7337392;19;108886;-71
2022/12/10 01:14:17;;;;;;;;;;;2.10;99.90;;;;;;7337063;19;109355;-71
2022/12/10 01:16:44;;;;;;;;;;;2.10;99.90;;;;;;7336663;19;109864;-71
2022/12/10 01:19:11;;;;;;;;;;;2.10;99.90;;;;;;7336099;19;109229;-72
2022/12/10 01:21:38;;;;;;;;;;;2.10;99.90;;;;;;7343428;19;111784;-71
2022/12/10 01:24:05;;;;;;;;;;;2.00;99.90;;;;;;7336693;19;109144;-71
2022/12/10 01:26:33;;;;;;;;;;;2.10;99.90;;;;;;7334390;19;110018;-71
2022/12/10 01:29:01;;;;;;;;;;;2.10;99.90;;;;;;7339650;19;110707;-72
2022/12/10 01:31:32;;;;;;;;;;;2.10;99.90;;;;;;7340775;19;108986;-72
2022/12/10 01:34:00;;;;;;;;;;;2.10;99.90;;;;;;7342954;19;109397;-71
2022/12/10 01:36:29;;;;;;;;;;;2.10;99.90;;;;;;7344088;19;110296;-71
2022/12/10 01:38:56;;;;;;;;;;;2.10;99.90;;;;;;7344159;19;109043;-71
2022/12/10 01:41:24;;;;;;;;;;;2.10;99.90;;;;;;7342364;19;108734;-71
2022/12/10 01:43:51;;;;;;;;;;;2.10;99.90;;;;;;7348239;19;110420;-71
2022/12/10 01:46:18;;;;;;;;;;;2.10;99.90;;;;;;7342877;19;109028;-71
2022/12/10 01:48:45;;;;;;;;;;;2.10;99.90;;;;;;7344080;19;110171;-71
2022/12/10 01:51:13;;;;;;;;;;;2.10;99.90;;;;;;7340847;19;109749;-71
2022/12/10 01:53:40;;;;;;;;;;;2.20;99.90;;;;;;7344232;19;109649;-71
2022/12/10 01:56:08;;;;;;;;;;;2.20;99.90;;;;;;7342441;19;111182;-71
2022/12/10 01:58:35;;;;;;;;;;;2.20;99.90;;;;;;7341963;19;108553;-71
2022/12/10 02:01:11;;;;;;;;;;;2.20;99.90;;;;;;7342278;19;109221;-71
2022/12/10 02:03:57;;;;;;;;;;;2.20;99.90;;;;;;7342703;19;110253;-71
2022/12/10 02:06:42;;;;;;;;;;;2.20;99.90;;;;;;7350016;19;113727;-71
2022/12/10 02:09:24;;;;;;;;;;;2.20;99.90;;;;;;7341288;19;110414;-72
2022/12/10 02:11:57;;;;;;;;;;;2.20;99.90;;;;;;7342102;19;108530;-71
2022/12/10 02:14:41;;;;;;;;;;;2.20;99.90;;;;;;7341246;19;109692;-71
2022/12/10 02:17:14;;;;;;;;;;;2.20;99.90;;;;;;7342123;19;110087;-71
2022/12/10 02:19:56;;;;;;;;;;;2.20;99.90;;;;;;7341406;19;109309;-72
2022/12/10 02:22:25;;;;;;;;;;;2.20;99.90;;;;;;7338205;19;109370;-71
2022/12/10 02:24:52;;;;;;;;;;;2.20;99.90;;;;;;7338794;19;114108;-71
2022/12/10 02:27:26;;;;;;;;;;;2.20;99.90;;;;;;7344549;19;109388;-71
2022/12/10 02:29:54;;;;;;;;;;;2.20;99.90;;;;;;7340934;19;110379;-71
2022/12/10 02:32:23;;;;;;;;;;;2.20;99.90;;;;;;7339207;19;108842;-71
2022/12/10 02:34:54;;;;;;;;;;;2.20;99.90;;;;;;7341406;19;108863;-71
2022/12/10 02:37:23;;;;;;;;;;;2.20;99.90;;;;;;7342604;19;110405;-71
2022/12/10 02:39:53;;;;;;;;;;;2.20;99.90;;;;;;7339303;19;108768;-71
2022/12/10 02:42:22;;;;;;;;;;;2.20;99.90;;;;;;7340437;19;110543;-71
2022/12/10 02:44:50;;;;;;;;;;;2.20;99.90;;;;;;7340716;19;112053;-71
2022/12/10 02:47:18;;;;;;;;;;;2.10;99.90;;;;;;7340034;19;108692;-73
2022/12/10 02:49:47;;;;;;;;;;;2.10;99.90;;;;;;7343708;19;109713;-71
2022/12/10 02:52:15;;;;;;;;;;;2.10;99.90;;;;;;7339315;19;111002;-71
2022/12/10 02:54:43;;;;;;;;;;;2.20;99.90;;;;;;7339906;19;109465;-71
2022/12/10 02:57:14;;;;;;;;;;;2.10;99.90;;;;;;7336094;19;110352;-71
2022/12/10 02:59:44;;;;;;;;;;;2.10;99.90;;;;;;7338411;19;108523;-71
2022/12/10 03:02:15;;;;;;;;;;;2.10;99.90;;;;;;7341276;19;109272;-71
2022/12/10 03:04:51;;;;;;;;;;;2.10;99.90;;;;;;7339234;19;110424;-71
2022/12/10 03:07:32;;;;;;;;;;;2.00;99.90;;;;;;7341516;19;108812;-71
2022/12/10 03:10:02;;;;;;;;;;;2.10;99.90;;;;;;7340300;19;109217;-78
2022/12/10 03:12:31;;;;;;;;;;;2.10;99.90;;;;;;7344328;19;111723;-78
2022/12/10 03:14:59;;;;;;;;;;;2.10;99.90;;;;;;7340254;19;109055;-75
2022/12/10 03:17:28;;;;;;;;;;;2.10;99.90;;;;;;7339009;19;110290;-75
2022/12/10 03:19:57;;;;;;;;;;;2.10;99.90;;;;;;7339415;19;108726;-75
2022/12/10 03:22:24;;;;;;;;;;;2.10;99.90;;;;;;7338265;19;109103;-77
2022/12/10 03:24:51;;;;;;;;;;;2.10;99.90;;;;;;7339561;19;109828;-75
2022/12/10 03:27:19;;;;;;;;;;;2.10;99.90;;;;;;7339193;19;108453;-71
2022/12/10 03:29:48;;;;;;;;;;;2.00;99.90;;;;;;7341156;19;109316;-71
2022/12/10 03:32:15;;;;;;;;;;;2.00;99.90;;;;;;7337681;19;111706;-71
2022/12/10 03:34:43;;;;;;;;;;;2.00;99.90;;;;;;7346088;19;109145;-71
2022/12/10 03:37:11;;;;;;;;;;;2.00;99.90;;;;;;7339868;19;110207;-71
2022/12/10 03:39:38;;;;;;;;;;;2.10;99.90;;;;;;7340602;19;109705;-71
2022/12/10 03:42:05;;;;;;;;;;;2.10;99.90;;;;;;7341233;19;110421;-71
2022/12/10 03:44:34;;;;;;;;;;;2.00;99.90;;;;;;7338195;19;110709;-72
2022/12/10 03:47:01;;;;;;;;;;;2.00;99.90;;;;;;7341976;19;109889;-71
2022/12/10 03:49:28;;;;;;;;;;;1.90;99.90;;;;;;7340045;19;109196;-71
2022/12/10 03:51:55;;;;;;;;;;;1.90;99.90;;;;;;7334850;19;110232;-71
2022/12/10 03:54:22;;;;;;;;;;;1.90;99.90;;;;;;7338004;19;109433;-71
2022/12/10 03:56:49;;;;;;;;;;;1.90;99.90;;;;;;7343801;19;111811;-71
2022/12/10 03:59:16;;;;;;;;;;;1.90;99.90;;;;;;7339165;19;109323;-71
2022/12/10 04:01:44;;;;;;;;;;;1.90;99.90;;;;;;7340501;19;109587;-71
2022/12/10 04:04:11;;;;;;;;;;;1.90;99.90;;;;;;7336845;19;110564;-71
2022/12/10 04:06:39;;;;;;;;;;;1.80;99.90;;;;;;7339285;19;109423;-71
2022/12/10 04:09:06;;;;;;;;;;;1.70;99.90;;;;;;7338002;19;110548;-71
2022/12/10 04:11:32;;;;;;;;;;;1.70;99.90;;;;;;7336769;19;109151;-71
2022/12/10 04:16:45;;;;;;;;;;;1.80;99.90;;;;;;7344514;19;110043;-71
2022/12/10 04:19:13;;;;;;;;;;;1.70;99.90;;;;;;7336057;19;108438;-71
2022/12/10 04:27:33;;;;;;;;;;;1.70;99.90;;;;;;7339412;19;108817;-71
2022/12/10 04:30:00;;;;;;;;;;;1.70;99.90;;;;;;7338795;19;110473;-71
2022/12/10 04:32:28;;;;;;;;;;;1.60;99.90;;;;;;7335767;19;110809;-71
2022/12/10 04:34:55;;;;;;;;;;;1.60;99.90;;;;;;7334365;19;108822;-71
2022/12/10 04:37:22;;;;;;;;;;;1.60;99.90;;;;;;7335862;19;109116;-71
2022/12/10 04:39:50;;;;;;;;;;;1.60;99.90;;;;;;7341679;19;110351;-71
2022/12/10 04:42:17;;;;;;;;;;;1.60;99.90;;;;;;7335745;19;109421;-71
2022/12/10 04:44:44;;;;;;;;;;;1.70;99.90;;;;;;7336571;19;110752;-71
2022/12/10 04:47:11;;;;;;;;;;;1.70;99.90;;;;;;7335904;19;108830;-71
2022/12/10 04:49:39;;;;;;;;;;;1.60;99.90;;;;;;7336994;19;109368;-71
2022/12/10 04:52:07;;;;;;;;;;;1.60;99.90;;;;;;7336072;19;112862;-71
2022/12/10 04:54:33;;;;;;;;;;;1.70;99.90;;;;;;7336887;19;108816;-71
2022/12/10 04:57:05;;;;;;;;;;;1.70;99.90;;;;;;7338447;19;109203;-71
2022/12/10 04:59:32;;;;;;;;;;;1.70;99.90;;;;;;7336987;19;111409;-71
2022/12/10 05:01:59;;;;;;;;;;;1.70;99.90;;;;;;7344299;19;114270;-71
2022/12/10 05:04:26;;;;;;;;;;;1.70;99.90;;;;;;7342361;19;112703;-71
2022/12/10 05:06:53;;;;;;;;;;;1.70;99.90;;;;;;7344094;19;108446;-71
2022/12/10 05:09:20;;;;;;;;;;;1.70;99.90;;;;;;7342776;19;109294;-71
2022/12/10 05:11:46;;;;;;;;;;;1.70;99.90;;;;;;7343952;19;109535;-71
2022/12/10 05:14:14;;;;;;;;;;;1.70;99.90;;;;;;7343229;19;108509;-71
2022/12/10 05:16:42;;;;;;;;;;;1.80;99.90;;;;;;7344099;19;112694;-70
2022/12/10 05:19:09;;;;;;;;;;;1.80;99.90;;;;;;7342663;19;110380;-71
2022/12/10 05:24:24;;;;;;;;;;;1.80;99.90;;;;;;7343986;19;109252;-71
2022/12/10 05:26:51;;;;;;;;;;;1.70;99.90;;;;;;7340524;19;109460;-71
2022/12/10 05:29:18;;;;;;;;;;;1.80;99.90;;;;;;7341876;19;108865;-71
2022/12/10 05:31:45;;;;;;;;;;;1.80;99.90;;;;;;7343399;19;110238;-70
2022/12/10 05:34:12;;;;;;;;;;;1.80;99.90;;;;;;7340964;19;108819;-71
2022/12/10 05:36:39;;;;;;;;;;;1.80;99.90;;;;;;7342587;19;114268;-71
2022/12/10 05:39:06;;;;;;;;;;;1.80;99.90;;;;;;7342554;19;110351;-71
2022/12/10 05:41:34;;;;;;;;;;;1.80;99.90;;;;;;7342612;19;108822;-71
2022/12/10 05:44:01;;;;;;;;;;;1.80;99.90;;;;;;7343619;19;108931;-71
2022/12/10 05:46:29;;;;;;;;;;;1.80;99.90;;;;;;7347159;19;110178;-71
2022/12/10 05:48:56;;;;;;;;;;;1.80;99.90;;;;;;7342754;19;108623;-71
2022/12/10 05:51:25;;;;;;;;;;;1.80;99.90;;;;;;7339688;19;110605;-71
2022/12/10 05:53:52;;;;;;;;;;;1.70;99.90;;;;;;7345232;19;108595;-71
2022/12/10 05:56:21;;;;;;;;;;;1.70;99.90;;;;;;7341662;19;108231;-71
2022/12/10 05:58:49;;;;;;;;;;;1.80;99.90;;;;;;7342849;19;112830;-71
2022/12/10 06:01:17;;;;;;;;;;;1.70;99.90;;;;;;7341766;19;108831;-71
2022/12/10 06:03:44;;;;;;;;;;;1.70;99.90;;;;;;7344306;19;111659;-71
2022/12/10 06:06:11;;;;;;;;;;;1.70;99.90;;;;;;7339051;19;113088;-70
2022/12/10 06:08:39;;;;;;;;;;;1.80;99.90;;;;;;7347929;19;108857;-70
2022/12/10 06:11:07;;;;;;;;;;;1.80;99.90;;;;;;7340874;19;109598;-71
2022/12/10 06:13:34;;;;;;;;;;;1.80;99.90;;;;;;7341926;19;108832;-71
2022/12/10 06:16:05;;;;;;;;;;;1.80;99.90;;;;;;7342246;19;109212;-71
2022/12/10 06:18:32;;;;;;;;;;;1.80;99.90;;;;;;7340158;19;109089;-70
2022/12/10 06:21:02;;;;;;;;;;;1.80;99.90;;;;;;7339176;19;108623;-70
2022/12/10 06:23:29;;;;;;;;;;;1.80;99.90;;;;;;7340678;19;109654;-70
2022/12/10 06:25:56;;;;;;;;;;;1.80;99.90;;;;;;7343657;19;110534;-70
2022/12/10 06:28:22;;;;;;;;;;;1.70;99.90;;;;;;7346935;19;108432;-71
2022/12/10 06:30:49;;;;;;;;;;;1.70;99.90;;;;;;7340673;19;109697;-70
2022/12/10 06:33:16;;;;;;;;;;;1.70;99.90;;;;;;7340149;19;108987;-71
2022/12/10 06:35:43;;;;;;;;;;;1.80;99.90;;;;;;7340028;19;109617;-71
2022/12/10 06:38:10;;;;;;;;;;;1.80;99.90;;;;;;7338648;19;110306;-71
2022/12/10 06:40:39;;;;;;;;;;;1.80;99.90;;;;;;7341197;19;108684;-70
2022/12/10 06:43:06;;;;;;;;;;;1.80;99.90;;;;;;7340491;19;109576;-70
2022/12/10 06:45:33;;;;;;;;;;;1.80;99.90;;;;;;7337384;19;110028;-70
2022/12/10 06:47:59;;;;;;;;;;;1.80;99.90;;;;;;7341877;19;108359;-70
2022/12/10 06:50:26;;;;;;;;;;;1.80;99.90;;;;;;7346986;19;109548;-71
2022/12/10 06:52:53;;;;;;;;;;;1.80;99.90;;;;;;7339976;19;108957;-71
2022/12/10 06:55:20;;;;;;;;;;;1.80;99.90;;;;;;7341626;19;110300;-70
2022/12/10 06:57:50;;;;;;;;;;;1.80;99.90;;;;;;7340727;19;110079;-71
2022/12/10 07:00:17;;;;;;;;;;;1.80;99.90;;;;;;7339562;19;108822;-70
2022/12/10 07:02:47;;;;;;;;;;;1.80;99.90;;;;;;7340346;19;110139;-70
2022/12/10 07:05:15;;;;;;;;;;;1.80;99.90;;;;;;7338563;19;110522;-70
2022/12/10 07:07:42;;;;;;;;;;;1.80;99.90;;;;;;7340380;19;108858;-70
2022/12/10 07:10:09;;;;;;;;;;;1.80;99.90;;;;;;7339137;19;108606;-70
2022/12/10 07:12:37;;;;;;;;;;;1.80;99.90;;;;;;7344872;19;110503;-70
2022/12/10 07:15:04;;;;;;;;;;;1.80;99.90;;;;;;7340566;19;109370;-71
2022/12/10 07:17:31;;;;;;;;;;;1.80;99.90;;;;;;7339154;19;113562;-71
2022/12/10 07:19:58;;;;;;;;;;;1.80;99.90;;;;;;7340818;19;108498;-71
2022/12/10 07:22:25;;;;;;;;;;;1.80;99.90;;;;;;7338506;19;109500;-70
2022/12/10 07:24:52;;;;;;;;;;;1.80;99.90;;;;;;7338683;19;110350;-70
2022/12/10 07:27:19;;;;;;;;;;;1.80;99.90;;;;;;7334378;19;108969;-71
2022/12/10 07:29:45;;;;;;;;;;;1.80;99.90;;;;;;7340029;19;109640;-70
2022/12/10 07:32:15;;;;;;;;;;;1.80;99.90;;;;;;7336900;19;109188;-71
2022/12/10 07:34:42;;;;;;;;;;;1.80;99.90;;;;;;7344077;19;109272;-70
2022/12/10 07:37:09;;;;;;;;;;;1.80;99.90;;;;;;7340033;19;109939;-71
2022/12/10 07:39:36;;;;;;;;;;;1.80;99.90;;;;;;7340761;19;110369;-70
2022/12/10 07:42:06;;;;;;;;;;;1.70;99.90;;;;;;7337441;19;121430;-70
2022/12/10 07:44:33;;;;;;;;;;;1.80;99.90;;;;;;7337857;19;110960;-70
2022/12/10 07:47:00;;;;;;;;;;;1.80;99.90;;;;;;7338473;19;109393;-71
2022/12/10 07:49:28;;;;;;;;;;;1.80;99.90;;;;;;7338061;19;108716;-71
2022/12/10 07:51:55;;;;;;;;;;;1.70;99.90;;;;;;7337290;19;109228;-71
2022/12/10 07:54:22;;;;;;;;;;;1.70;99.90;;;;;;7338606;19;108780;-71
2022/12/10 07:56:49;;;;;;;;;;;1.70;99.90;;;;;;7345460;19;109068;-71
2022/12/10 07:59:16;;;;;;;;;;;1.60;99.90;;;;;;7339085;19;108766;-71
2022/12/10 08:01:43;;;;;;;;;;;1.70;99.90;;;;;;7336062;19;111125;-71
2022/12/10 08:04:09;;;;;;;;;;;1.70;99.90;;;;;;7336472;19;110187;-71
2022/12/10 08:06:36;;;;;;;;;;;1.70;99.90;;;;;;7337223;19;109319;-71
2022/12/10 08:09:03;;;;;;;;;;;1.70;99.90;;;;;;7338282;19;108520;-70
2022/12/10 08:11:30;;;;;;;;;;;1.70;99.90;;;;;;7335741;19;110484;-70
2022/12/10 08:13:57;;;;;;;;;;;1.70;99.90;;;;;;7337348;19;108370;-70
2022/12/10 08:16:25;;;;;;;;;;;1.80;99.90;;;;;;7335051;19;110066;-71
2022/12/10 08:18:54;;;;;;;;;;;1.80;99.90;;;;;;7342807;19;110618;-70
2022/12/10 08:21:22;;;;;;;;;;;1.80;99.90;;;;;;7336806;19;109318;-71
2022/12/10 08:23:49;;;;;;;;;;;1.80;99.90;;;;;;7337322;19;110122;-70
2022/12/10 08:26:17;;;;;;;;;;;1.80;99.90;;;;;;7337420;19;108613;-77
2022/12/10 08:28:44;;;;;;;;;;;1.80;99.90;;;;;;7337006;19;108872;-79
2022/12/10 08:31:12;;;;;;;;;;;1.90;99.90;;;;;;7337683;19;109819;-79
2022/12/10 08:33:39;;;;;;;;;;;1.90;99.90;;;;;;7336626;19;108982;-77
2022/12/10 08:36:07;;;;;;;;;;;1.90;99.90;;;;;;7336766;19;109280;-78
2022/12/10 08:38:34;;;;;;;;;;;1.90;99.90;;;;;;7346407;19;109275;-80
2022/12/10 08:41:11;;;;;;;;;;;1.90;99.90;;;;;;7344524;19;109275;-78
2022/12/10 08:43:38;;;;;;;;;;;1.80;99.90;;;;;;7344906;19;110347;-77
2022/12/10 08:46:05;;;;;;;;;;;1.80;99.90;;;;;;7344484;19;108897;-75
2022/12/10 08:48:33;;;;;;;;;;;1.80;99.90;;;;;;7343460;19;109157;-79
2022/12/10 08:51:00;;;;;;;;;;;1.70;99.90;;;;;;7341591;19;110944;-77
2022/12/10 08:53:27;;;;;;;;;;;1.70;99.90;;;;;;7342461;19;108486;-71
2022/12/10 08:55:54;;;;;;;;;;;1.70;99.90;;;;;;7345017;19;109133;-70
2022/12/10 08:58:21;;;;;;;;;;;1.70;99.90;;;;;;7343514;19;110398;-71
2022/12/10 09:00:48;;;;;;;;;;;1.80;99.90;;;;;;7350707;19;108884;-70
2022/12/10 09:03:15;;;;;;;;;;;1.80;99.90;;;;;;7343128;19;110150;-71
2022/12/10 09:05:42;;;;;;;;;;;1.90;99.90;;;;;;7344310;19;108514;-70
2022/12/10 09:08:09;;;;;;;;;;;1.80;99.90;;;;;;7345281;19;108681;-70
2022/12/10 09:10:37;;;;;;;;;;;1.80;99.90;;;;;;7344565;19;110669;-70
2022/12/10 09:13:04;;;;;;;;;;;1.90;99.90;;;;;;7343323;19;109817;-70
2022/12/10 09:15:31;;;;;;;;;;;1.90;99.90;;;;;;7343223;19;108523;-70
2022/12/10 09:17:58;;;;;;;;;;;1.90;99.90;;;;;;7343008;19;110295;-70
2022/12/10 09:20:25;;;;;;;;;;;1.90;99.90;;;;;;7341445;19;108542;-70
2022/12/10 09:22:52;;;;;;;;;;;1.90;99.90;;;;;;7347710;19;109284;-70
2022/12/10 09:25:21;;;;;;;;;;;1.90;99.90;;;;;;7343425;19;108850;-71
2022/12/10 09:27:48;;;;;;;;;;;1.90;99.90;;;;;;7345385;19;109227;-72
2022/12/10 09:30:15;;;;;;;;;;;1.80;99.90;;;;;;7342058;19;110339;-70
2022/12/10 09:32:42;;;;;;;;;;;1.80;99.90;;;;;;7345314;19;108591;-70
2022/12/10 09:35:09;;;;;;;;;;;1.80;99.90;;;;;;7342750;19;111248;-71
2022/12/10 09:37:36;;;;;;;;;;;1.90;99.90;;;;;;7343433;19;113758;-70
2022/12/10 09:40:03;;;;;;;;;;;1.90;99.90;;;;;;7341584;19;108468;-73
2022/12/10 09:42:34;;;;;;;;;;;1.90;99.90;;;;;;7344184;19;109535;-71
2022/12/10 09:45:10;;;;;;;;;;;1.80;99.90;;;;;;7348500;19;110184;-70
2022/12/10 09:47:56;;;;;;;;;;;1.90;99.90;;;;;;7343677;19;110715;-70
2022/12/10 09:50:29;;;;;;;;;;;1.90;99.90;;;;;;7339293;19;110960;-71
2022/12/10 09:52:57;;;;;;;;;;;2.00;99.90;;;;;;7342745;19;109511;-70
2022/12/10 09:55:38;;;;;;;;;;;2.00;99.90;;;;;;7340016;19;108692;-70
2022/12/10 09:58:09;;;;;;;;;;;2.00;99.90;;;;;;7342253;19;110404;-71
2022/12/10 10:00:38;;;;;;;;;;;2.00;99.90;;;;;;7340540;19;108263;-70
2022/12/10 10:03:06;;;;;;;;;;;2.00;99.90;;;;;;7340864;19;109426;-70
2022/12/10 10:05:36;;;;;;;;;;;2.00;99.90;;;;;;7334837;19;110385;-70
2022/12/10 10:08:11;;;;;;;;;;;1.90;99.90;;;;;;7346209;19;109106;-70
2022/12/10 10:10:40;;;;;;;;;;;1.90;99.90;;;;;;7340810;19;110211;-72
2022/12/10 10:13:06;;;;;;;;;;;2.00;99.90;;;;;;7341826;19;108842;-70
2022/12/10 10:15:35;;;;;;;;;;;2.00;99.90;;;;;;7341457;19;109151;-70
2022/12/10 10:18:08;;;;;;;;;;;2.00;99.90;;;;;;7340341;19;110735;-70
2022/12/10 10:20:35;;;;;;;;;;;2.00;99.90;;;;;;7344063;19;108633;-70
2022/12/10 10:23:02;;;;;;;;;;;2.00;99.90;;;;;;7341772;19;109257;-70
2022/12/10 10:25:29;;;;;;;;;;;2.00;99.90;;;;;;7341628;19;109928;-70
2022/12/10 10:27:56;;;;;;;;;;;2.00;99.90;;;;;;7339452;19;108884;-70
2022/12/10 10:30:24;;;;;;;;;;;2.00;99.90;;;;;;7344133;19;109289;-70
2022/12/10 10:32:52;;;;;;;;;;;2.00;99.90;;;;;;7340403;19;109814;-70
2022/12/10 10:35:23;;;;;;;;;;;2.00;99.90;;;;;;7336737;19;111635;-71
2022/12/10 10:37:50;;;;;;;;;;;2.00;99.90;;;;;;7338520;19;109687;-71
2022/12/10 10:40:40;;;;;;;;;;;2.10;99.90;;;;;;7340415;19;109787;-71
2022/12/10 10:43:14;;;;;;;;;;;2.10;99.90;;;;;;7340615;19;109133;-70
2022/12/10 10:45:42;;;;;;;;;;;2.10;99.90;;;;;;7338241;19;111987;-70
2022/12/10 10:48:10;;;;;;;;;;;2.10;99.90;;;;;;7339046;19;108759;-71
2022/12/10 10:50:40;;;;;;;;;;;2.10;99.90;;;;;;7345244;19;109626;-70
2022/12/10 10:53:24;;;;;;;;;;;2.20;99.90;;;;;;7338680;19;108677;-70
2022/12/10 10:55:52;;;;;;;;;;;2.20;99.90;;;;;;7339987;19;109387;-70
2022/12/10 10:58:19;;;;;;;;;;;2.20;99.90;;;;;;7337698;19;110304;-70
2022/12/10 11:00:54;;;;;;;;;;;2.20;99.90;;;;;;7337207;19;109660;-70
2022/12/10 11:03:21;;;;;;;;;;;2.10;99.90;;;;;;7339754;19;109049;-70
2022/12/10 11:05:48;;;;;;;;;;;2.20;99.90;;;;;;7338604;19;110110;-70
2022/12/10 11:08:20;;;;;;;;;;;2.20;99.90;;;;;;7338002;19;109566;-71
2022/12/10 11:10:49;;;;;;;;;;;2.20;99.90;;;;;;7340706;19;108833;-70
2022/12/10 11:13:23;;;;;;;;;;;2.20;99.90;;;;;;7344310;19;110198;-69
2022/12/10 11:16:08;;;;;;;;;;;2.30;99.90;;;;;;7343140;19;112168;-72
2022/12/10 11:18:36;;;;;;;;;;;2.40;99.90;;;;;;7338478;19;110448;-70
2022/12/10 11:21:03;;;;;;;;;;;2.40;99.90;;;;;;7336304;19;108984;-70
2022/12/10 11:23:39;;;;;;;;;;;2.50;99.90;;;;;;7339741;19;109054;-69
2022/12/10 11:26:24;;;;;;;;;;;2.50;99.90;;;;;;7339956;19;110363;-69
2022/12/10 11:28:58;;;;;;;;;;;2.60;99.90;;;;;;7340217;19;109472;-68
2022/12/10 11:31:43;;;;;;;;;;;2.60;99.90;;;;;;7339832;19;112682;-70
2022/12/10 11:34:36;;;;;;;;;;;2.60;99.90;;;;;;7337977;19;109373;-68
2022/12/10 11:37:10;;;;;;;;;;;2.70;99.90;;;;;;7341510;19;108694;-68
2022/12/10 11:39:52;;;;;;;;;;;2.70;99.90;;;;;;7337736;19;110327;-68
2022/12/10 11:42:37;;;;;;;;;;;2.70;99.90;;;;;;7335119;19;108459;-68
2022/12/10 11:45:13;;;;;;;;;;;2.70;99.90;;;;;;7337840;19;110940;-68
2022/12/10 11:47:53;;;;;;;;;;;2.70;99.90;;;;;;7336021;19;110249;-68
2022/12/10 11:50:20;;;;;;;;;;;2.80;99.90;;;;;;7337477;19;108843;-68
2022/12/10 11:53:02;;;;;;;;;;;2.80;99.90;;;;;;7336609;19;108924;-68
2022/12/10 11:55:35;;;;;;;;;;;2.80;99.90;;;;;;7336331;19;110342;-68
2022/12/10 11:58:16;;;;;;;;;;;2.80;99.90;;;;;;7338998;19;109054;-68
2022/12/10 12:00:45;;;;;;;;;;;2.80;99.90;;;;;;7344038;19;110276;-68
2022/12/10 12:03:32;;;;;;;;;;;2.90;99.90;;;;;;7336476;19;108853;-68
2022/12/10 12:06:19;;;;;;;;;;;2.90;99.90;;;;;;7335817;19;109620;-68
2022/12/10 12:08:54;;;;;;;;;;;2.90;99.90;;;;;;7339513;19;110178;-68
2022/12/10 12:11:40;;;;;;;;;;;2.90;99.90;;;;;;7335603;19;108421;-68
2022/12/10 12:14:25;;;;;;;;;;;2.90;99.90;;;;;;7336825;19;108725;-68
2022/12/10 12:17:00;;;;;;;;;;;2.90;99.90;;;;;;7338291;19;110397;-67
2022/12/10 12:19:33;;;;;;;;;;;2.90;99.90;;;;;;7336117;19;108428;-68
2022/12/10 12:22:02;;;;;;;;;;;2.90;99.90;;;;;;7337424;19;109152;-68
2022/12/10 12:24:35;;;;;;;;;;;2.90;99.90;;;;;;7341763;19;110408;-68
2022/12/10 12:27:15;;;;;;;;;;;2.90;99.90;;;;;;7335849;19;108766;-68
2022/12/10 12:30:08;;;;;;;;;;;3.00;99.90;;;;;;7336883;19;110542;-68
2022/12/10 12:32:44;;;;;;;;;;;3.00;99.90;;;;;;7336831;19;108682;-68
2022/12/10 12:35:32;;;;;;;;;;;3.00;99.90;;;;;;7336583;19;109310;-68
2022/12/10 12:38:01;;;;;;;;;;;3.00;99.90;;;;;;7338756;19;110261;-67
2022/12/10 12:40:40;;;;;;;;;;;3.00;99.90;;;;;;7336281;19;108296;-68
2022/12/10 12:43:16;;;;;;;;;;;3.00;99.90;;;;;;7337916;19;109194;-68
2022/12/10 12:45:44;;;;;;;;;;;3.00;99.90;;;;;;7337657;19;110984;-67
2022/12/10 12:48:15;;;;;;;;;;;3.00;99.90;;;;;;7343818;19;108969;-68
2022/12/10 12:50:54;;;;;;;;;;;3.00;99.90;;;;;;7336663;19;109879;-67
2022/12/10 12:53:22;;;;;;;;;;;3.10;99.90;;;;;;7335804;19;108859;-68
2022/12/10 12:56:02;;;;;;;;;;;3.10;99.90;;;;;;7337896;19;108361;-68
2022/12/10 12:58:34;;;;;;;;;;;3.10;99.90;;;;;;7335910;19;111920;-67
2022/12/10 13:01:13;;;;;;;;;;;3.10;99.90;;;;;;7336482;19;108855;-68
2022/12/10 13:03:41;;;;;;;;;;;3.10;99.90;;;;;;7337527;19;109522;-67
2022/12/10 13:06:17;;;;;;;;;;;3.10;99.90;;;;;;7335714;19;110626;-68
2022/12/10 13:08:52;;;;;;;;;;;3.10;99.90;;;;;;7342526;19;108825;-67
2022/12/10 13:11:27;;;;;;;;;;;3.10;99.90;;;;;;7335020;19;110837;-68
2022/12/10 13:14:03;;;;;;;;;;;3.10;99.90;;;;;;7335820;19;108233;-67
2022/12/10 13:16:45;;;;;;;;;;;3.10;99.90;;;;;;7336854;19;109317;-67
2022/12/10 13:19:15;;;;;;;;;;;3.20;99.90;;;;;;7334978;19;110423;-68
2022/12/10 13:21:50;;;;;;;;;;;3.10;99.90;;;;;;7335910;19;108919;-67
2022/12/10 13:24:22;;;;;;;;;;;3.10;99.90;;;;;;7337528;19;109486;-68
2022/12/10 13:27:06;;;;;;;;;;;3.10;99.90;;;;;;7342850;19;110425;-67
2022/12/10 13:29:46;;;;;;;;;;;3.20;99.90;;;;;;7341054;19;108539;-68
2022/12/10 13:32:15;;;;;;;;;;;3.20;99.90;;;;;;7346505;19;108481;-68
2022/12/10 13:34:42;;;;;;;;;;;3.20;99.90;;;;;;7343486;19;109399;-68
2022/12/10 13:37:17;;;;;;;;;;;3.10;99.90;;;;;;7342024;19;109810;-68
2022/12/10 13:39:53;;;;;;;;;;;3.10;99.90;;;;;;7340865;19;109453;-68
2022/12/10 13:45:22;;;;;;;;;;;3.10;99.90;;;;;;7342126;19;109565;-68
2022/12/10 13:47:53;;;;;;;;;;;3.00;99.90;;;;;;7342457;19;109818;-68
2022/12/10 13:50:20;;;;;;;;;;;3.00;99.90;;;;;;7342336;19;108597;-67
2022/12/10 13:52:56;;;;;;;;;;;3.10;99.90;;;;;;7342400;19;109178;-67
2022/12/10 13:55:32;;;;;;;;;;;3.10;99.90;;;;;;7347795;19;110357;-68
2022/12/10 13:57:59;;;;;;;;;;;3.10;99.90;;;;;;7343889;19;109362;-67
2022/12/10 14:00:34;;;;;;;;;;;3.00;99.90;;;;;;7342290;19;110606;-67
2022/12/10 14:03:12;;;;;;;;;;;3.00;99.90;;;;;;7342575;19;108746;-67
2022/12/10 14:06:06;;;;;;;;;;;3.00;99.90;;;;;;7341164;19;108508;-67
2022/12/10 14:08:34;;;;;;;;;;;3.00;99.90;;;;;;7340211;19;110244;-67
2022/12/10 14:11:04;;;;;;;;;;;3.00;99.90;;;;;;7341767;19;108549;-68
2022/12/10 14:13:35;;;;;;;;;;;3.00;99.90;;;;;;7339863;19;108818;-68
2022/12/10 14:16:05;;;;;;;;;;;3.00;99.90;;;;;;7338303;19;109214;-67
2022/12/10 14:18:32;;;;;;;;;;;3.10;99.90;;;;;;7345301;19;108958;-68
2022/12/10 14:21:03;;;;;;;;;;;3.20;99.90;;;;;;7335694;19;111299;-67
2022/12/10 14:23:36;;;;;;;;;;;3.20;99.90;;;;;;7340778;19;109583;-67
2022/12/10 14:26:13;;;;;;;;;;;3.20;99.90;;;;;;7340003;19;108656;-67
2022/12/10 14:28:41;;;;;;;;;;;3.20;99.90;;;;;;7340764;19;109345;-68
2022/12/10 14:31:14;;;;;;;;;;;3.30;99.90;;;;;;7337835;19;109885;-68
2022/12/10 14:33:41;;;;;;;;;;;3.30;99.90;;;;;;7336508;19;110090;-67
2022/12/10 14:36:14;;;;;;;;;;;3.30;99.90;;;;;;7334777;19;110673;-68
2022/12/10 14:38:41;;;;;;;;;;;3.30;99.90;;;;;;7335394;19;109429;-68
2022/12/10 14:41:10;;;;;;;;;;;3.40;99.90;;;;;;7338387;19;111665;-68
2022/12/10 14:43:38;;;;;;;;;;;3.40;99.90;;;;;;7338341;19;108979;-68
2022/12/10 14:46:11;;;;;;;;;;;3.40;99.90;;;;;;7336793;19;109082;-68